createdAt,value
2018-02-18T00:00:51.260Z,3.06
2018-02-18T00:02:18.521Z,3.06
2018-02-18T00:03:45.605Z,3.09
2018-02-18T00:05:12.775Z,3.13
2018-02-18T00:06:40.947Z,3.17
2018-02-18T00:08:06.806Z,3.20
2018-02-18T00:09:34.990Z,3.22
2018-02-18T00:11:01.894Z,3.23
2018-02-18T00:12:28.819Z,3.25
2018-02-18T00:13:55.691Z,3.27
2018-02-18T00:15:21.873Z,3.29
2018-02-18T00:16:49.884Z,3.30
2018-02-18T00:18:15.938Z,3.29
2018-02-18T00:19:43.138Z,3.28
2018-02-18T00:21:10.119Z,3.28
2018-02-18T00:22:37.341Z,3.27
2018-02-18T00:24:04.741Z,3.23
2018-02-18T00:25:32.898Z,3.14
2018-02-18T00:27:00.012Z,3.10
2018-02-18T00:28:26.483Z,3.05
2018-02-18T00:29:54.657Z,3.05
2018-02-18T00:31:20.685Z,3.06
2018-02-18T00:32:48.766Z,3.07
2018-02-18T00:34:15.569Z,3.11
2018-02-18T00:35:41.732Z,3.14
2018-02-18T00:37:09.736Z,3.18
2018-02-18T00:38:35.973Z,3.20
2018-02-18T00:40:04.108Z,3.22
2018-02-18T00:41:30.267Z,3.24
2018-02-18T00:42:57.445Z,3.24
2018-02-18T00:44:24.744Z,3.26
2018-02-18T00:45:51.965Z,3.28
2018-02-18T00:47:19.239Z,3.30
2018-02-18T00:48:46.233Z,3.33
2018-02-18T00:50:14.432Z,3.35
2018-02-18T00:51:41.471Z,3.32
2018-02-18T00:53:08.509Z,3.28
2018-02-18T00:54:35.624Z,3.27
2018-02-18T00:56:02.815Z,3.27
2018-02-18T00:57:28.842Z,3.27
2018-02-18T00:58:56.052Z,3.27
2018-02-18T01:00:23.216Z,3.23
2018-02-18T01:01:51.617Z,3.23
2018-02-18T01:03:17.801Z,3.24
2018-02-18T01:04:44.911Z,3.25
2018-02-18T01:06:11.925Z,3.27
2018-02-18T01:07:40.038Z,3.29
2018-02-18T01:09:07.182Z,3.31
2018-02-18T01:10:33.436Z,3.33
2018-02-18T01:12:00.820Z,3.34
2018-02-18T01:13:29.112Z,3.34
2018-02-18T01:14:56.334Z,3.34
2018-02-18T01:16:22.610Z,3.33
2018-02-18T01:17:49.706Z,3.33
2018-02-18T01:19:17.728Z,3.33
2018-02-18T01:20:44.943Z,3.32
2018-02-18T01:22:11.092Z,3.33
2018-02-18T01:23:38.515Z,3.34
2018-02-18T01:25:06.791Z,3.35
2018-02-18T01:26:34.068Z,3.37
2018-02-18T01:28:00.167Z,3.38
2018-02-18T01:29:27.359Z,3.40
2018-02-18T01:30:54.638Z,3.40
2018-02-18T01:32:21.581Z,3.41
2018-02-18T01:33:49.790Z,3.42
2018-02-18T01:35:16.009Z,3.41
2018-02-18T01:36:44.160Z,3.41
2018-02-18T01:38:10.124Z,3.41
2018-02-18T01:39:37.533Z,3.40
2018-02-18T01:41:04.858Z,3.41
2018-02-18T01:42:31.949Z,3.41
2018-02-18T01:43:59.296Z,3.41
2018-02-18T01:45:26.357Z,3.42
2018-02-18T01:46:53.748Z,3.43
2018-02-18T01:48:21.053Z,3.43
2018-02-18T01:49:49.368Z,3.44
2018-02-18T01:51:16.699Z,3.45
2018-02-18T01:52:42.751Z,3.44
2018-02-18T01:54:09.870Z,3.43
2018-02-18T01:55:36.929Z,3.44
2018-02-18T01:57:05.229Z,3.44
2018-02-18T01:58:32.408Z,3.44
2018-02-18T01:59:58.721Z,3.44
2018-02-18T02:01:25.843Z,3.44
2018-02-18T02:02:53.900Z,3.44
2018-02-18T02:04:20.054Z,3.43
2018-02-18T02:05:47.242Z,3.42
2018-02-18T02:07:15.456Z,3.39
2018-02-18T02:08:42.495Z,3.37
2018-02-18T02:10:08.296Z,3.36
2018-02-18T02:11:36.393Z,3.36
2018-02-18T02:13:03.501Z,3.37
2018-02-18T02:14:29.440Z,3.37
2018-02-18T02:15:56.517Z,3.38
2018-02-18T02:17:24.678Z,3.39
2018-02-18T02:18:51.957Z,3.40
2018-02-18T02:20:17.998Z,3.41
2018-02-18T02:21:46.033Z,3.41
2018-02-18T02:23:13.224Z,3.41
2018-02-18T02:24:38.994Z,3.40
2018-02-18T02:26:06.207Z,3.37
2018-02-18T02:27:34.400Z,3.38
2018-02-18T02:29:00.725Z,3.38
2018-02-18T02:30:27.686Z,3.41
2018-02-18T02:31:55.977Z,3.42
2018-02-18T02:33:22.060Z,3.44
2018-02-18T02:34:49.186Z,3.45
2018-02-18T02:36:16.733Z,3.46
2018-02-18T02:37:44.974Z,3.41
2018-02-18T02:39:11.050Z,3.37
2018-02-18T02:40:39.163Z,3.35
2018-02-18T02:42:05.344Z,3.36
2018-02-18T02:43:33.692Z,3.37
2018-02-18T02:44:59.889Z,3.35
2018-02-18T02:46:27.191Z,3.35
2018-02-18T02:47:55.428Z,3.36
2018-02-18T02:49:21.639Z,3.37
2018-02-18T02:50:49.872Z,3.39
2018-02-18T02:52:16.208Z,3.41
2018-02-18T02:53:43.360Z,3.42
2018-02-18T02:55:11.693Z,3.39
2018-02-18T02:56:38.813Z,3.35
2018-02-18T02:58:05.976Z,3.29
2018-02-18T02:59:32.128Z,3.22
2018-02-18T03:01:00.442Z,3.20
2018-02-18T03:02:26.451Z,3.19
2018-02-18T03:03:53.572Z,3.17
2018-02-18T03:05:21.854Z,3.12
2018-02-18T03:06:48.065Z,3.11
2018-02-18T03:08:16.156Z,3.12
2018-02-18T03:09:42.188Z,3.15
2018-02-18T03:11:10.234Z,3.19
2018-02-18T03:12:37.377Z,3.23
2018-02-18T03:14:03.710Z,3.23
2018-02-18T03:15:31.989Z,3.18
2018-02-18T03:16:59.186Z,3.17
2018-02-18T03:18:25.312Z,3.19
2018-02-18T03:19:52.510Z,3.20
2018-02-18T03:21:19.674Z,3.20
2018-02-18T03:22:47.801Z,3.18
2018-02-18T03:24:14.983Z,3.16
2018-02-18T03:25:42.089Z,3.18
2018-02-18T03:27:08.069Z,3.20
2018-02-18T03:28:35.247Z,3.22
2018-02-18T03:30:03.212Z,3.21
2018-02-18T03:31:29.396Z,3.04
2018-02-18T03:32:56.590Z,2.91
2018-02-18T03:34:23.815Z,2.85
2018-02-18T03:35:50.976Z,2.82
2018-02-18T03:37:18.310Z,2.87
2018-02-18T03:38:46.515Z,2.91
2018-02-18T03:40:12.481Z,2.96
2018-02-18T03:41:40.616Z,2.94
2018-02-18T03:43:06.731Z,2.92
2018-02-18T03:44:34.809Z,2.92
2018-02-18T03:46:01.984Z,2.91
2018-02-18T03:47:28.160Z,2.81
2018-02-18T03:48:56.309Z,2.70
2018-02-18T03:50:23.703Z,2.69
2018-02-18T03:51:49.773Z,2.70
2018-02-18T03:53:18.093Z,2.74
2018-02-18T03:54:44.320Z,2.78
2018-02-18T03:56:12.503Z,2.82
2018-02-18T03:57:38.402Z,2.84
2018-02-18T03:59:06.469Z,2.86
2018-02-18T04:00:32.679Z,2.86
2018-02-18T04:02:00.815Z,2.89
2018-02-18T04:03:27.776Z,2.92
2018-02-18T04:04:53.932Z,2.94
2018-02-18T04:06:22.174Z,2.96
2018-02-18T04:07:49.469Z,2.98
2018-02-18T04:09:15.712Z,3.00
2018-02-18T04:10:43.704Z,3.02
2018-02-18T04:12:10.806Z,3.03
2018-02-18T04:13:37.781Z,3.05
2018-02-18T04:15:05.069Z,3.05
2018-02-18T04:16:31.145Z,3.03
2018-02-18T04:17:58.394Z,2.98
2018-02-18T04:19:26.495Z,2.97
2018-02-18T04:20:52.845Z,2.98
2018-02-18T04:22:20.054Z,2.99
2018-02-18T04:23:47.033Z,3.00
2018-02-18T04:25:15.250Z,3.03
2018-02-18T04:26:42.417Z,3.05
2018-02-18T04:28:08.376Z,3.09
2018-02-18T04:29:36.693Z,3.10
2018-02-18T04:31:02.779Z,3.04
2018-02-18T04:32:30.026Z,3.04
2018-02-18T04:33:57.275Z,3.05
2018-02-18T04:35:24.600Z,3.07
2018-02-18T04:36:51.744Z,3.09
2018-02-18T04:38:18.918Z,3.12
2018-02-18T04:39:45.978Z,3.14
2018-02-18T04:41:12.994Z,3.15
2018-02-18T04:42:40.093Z,3.16
2018-02-18T04:44:07.270Z,3.18
2018-02-18T04:45:35.567Z,3.20
2018-02-18T04:47:01.572Z,3.21
2018-02-18T04:48:29.871Z,3.21
2018-02-18T04:49:57.060Z,3.21
2018-02-18T04:51:24.292Z,3.20
2018-02-18T04:52:50.517Z,3.12
2018-02-18T04:54:18.701Z,3.06
2018-02-18T04:55:45.690Z,3.05
2018-02-18T04:57:12.018Z,3.04
2018-02-18T04:58:40.123Z,3.04
2018-02-18T05:00:07.137Z,3.07
2018-02-18T05:01:34.267Z,3.11
2018-02-18T05:03:00.514Z,3.15
2018-02-18T05:04:28.713Z,3.11
2018-02-18T05:05:54.808Z,3.00
2018-02-18T05:07:22.023Z,2.94
2018-02-18T05:08:49.250Z,2.96
2018-02-18T05:10:17.606Z,2.96
2018-02-18T05:11:44.647Z,2.96
2018-02-18T05:13:11.681Z,2.98
2018-02-18T05:14:37.826Z,3.00
2018-02-18T05:16:05.051Z,3.04
2018-02-18T05:17:33.201Z,3.07
2018-02-18T05:19:00.491Z,3.11
2018-02-18T05:20:27.590Z,3.13
2018-02-18T05:21:54.740Z,3.16
2018-02-18T05:23:21.031Z,3.18
2018-02-18T05:24:49.353Z,3.20
2018-02-18T05:26:15.587Z,3.22
2018-02-18T05:27:42.686Z,3.23
2018-02-18T05:29:09.886Z,3.25
2018-02-18T05:30:36.964Z,3.26
2018-02-18T05:32:04.173Z,3.26
2018-02-18T05:33:31.438Z,3.27
2018-02-18T05:34:58.686Z,3.25
2018-02-18T05:36:27.004Z,3.24
2018-02-18T05:37:54.029Z,3.24
2018-02-18T05:39:21.285Z,3.24
2018-02-18T05:40:47.453Z,3.24
2018-02-18T05:42:14.641Z,3.23
2018-02-18T05:43:41.818Z,3.23
2018-02-18T05:45:08.963Z,3.22
2018-02-18T05:46:36.027Z,3.22
2018-02-18T05:48:04.241Z,3.22
2018-02-18T05:49:30.084Z,3.22
2018-02-18T05:50:57.363Z,3.22
2018-02-18T05:52:24.584Z,3.22
2018-02-18T05:53:52.694Z,3.22
2018-02-18T05:55:19.787Z,3.22
2018-02-18T05:56:46.133Z,3.21
2018-02-18T05:58:13.220Z,3.22
2018-02-18T05:59:40.380Z,3.23
2018-02-18T06:01:07.546Z,3.24
2018-02-18T06:02:34.790Z,3.25
2018-02-18T06:04:02.891Z,3.26
2018-02-18T06:05:29.080Z,3.27
2018-02-18T06:06:57.333Z,3.27
2018-02-18T06:08:23.528Z,3.28
2018-02-18T06:09:50.696Z,3.28
2018-02-18T06:11:18.744Z,3.29
2018-02-18T06:12:46.035Z,3.30
2018-02-18T06:14:11.878Z,3.32
2018-02-18T06:15:39.088Z,3.32
2018-02-18T06:17:07.416Z,3.34
2018-02-18T06:18:34.631Z,3.35
2018-02-18T06:20:01.753Z,3.36
2018-02-18T06:21:28.877Z,3.37
2018-02-18T06:22:55.167Z,3.36
2018-02-18T06:24:23.437Z,3.36
2018-02-18T06:25:50.847Z,3.36
2018-02-18T06:27:16.892Z,3.36
2018-02-18T06:28:44.096Z,3.32
2018-02-18T06:30:12.301Z,3.32
2018-02-18T06:31:39.611Z,3.30
2018-02-18T06:33:05.427Z,3.30
2018-02-18T06:34:33.597Z,3.31
2018-02-18T06:36:00.833Z,3.31
2018-02-18T06:37:27.028Z,3.30
2018-02-18T06:38:54.235Z,3.30
2018-02-18T06:40:21.248Z,3.32
2018-02-18T06:41:49.640Z,3.33
2018-02-18T06:43:15.821Z,3.34
2018-02-18T06:44:43.816Z,3.31
2018-02-18T06:46:10.837Z,3.27
2018-02-18T06:47:38.051Z,3.27
2018-02-18T06:49:05.222Z,3.26
2018-02-18T06:50:31.466Z,3.25
2018-02-18T06:51:59.693Z,3.21
2018-02-18T06:53:25.909Z,3.18
2018-02-18T06:54:53.060Z,3.18
2018-02-18T06:56:20.238Z,3.16
2018-02-18T06:57:48.505Z,3.16
2018-02-18T06:59:15.737Z,3.18
2018-02-18T07:00:42.789Z,3.20
2018-02-18T07:02:09.837Z,3.21
2018-02-18T07:03:36.115Z,3.23
2018-02-18T07:05:04.284Z,3.21
2018-02-18T07:06:31.458Z,3.21
2018-02-18T07:07:58.635Z,3.18
2018-02-18T07:09:24.905Z,3.17
2018-02-18T07:10:52.046Z,3.18
2018-02-18T07:12:19.141Z,3.18
2018-02-18T07:13:46.310Z,3.20
2018-02-18T07:15:13.510Z,3.23
2018-02-18T07:16:40.610Z,3.21
2018-02-18T07:18:08.602Z,3.19
2018-02-18T07:19:34.812Z,3.15
2018-02-18T07:21:02.898Z,3.16
2018-02-18T07:22:28.992Z,3.16
2018-02-18T07:23:56.272Z,3.17
2018-02-18T07:25:23.102Z,3.18
2018-02-18T07:26:51.268Z,3.22
2018-02-18T07:28:17.575Z,3.24
2018-02-18T07:29:44.496Z,3.27
2018-02-18T07:31:11.474Z,3.30
2018-02-18T07:32:39.289Z,3.32
2018-02-18T07:34:06.224Z,3.35
2018-02-18T07:35:32.480Z,3.32
2018-02-18T07:37:00.702Z,3.32
2018-02-18T07:38:27.085Z,3.32
2018-02-18T07:39:54.025Z,3.29
2018-02-18T07:41:22.456Z,3.32
2018-02-18T07:42:49.501Z,3.35
2018-02-18T07:44:16.565Z,3.39
2018-02-18T07:45:42.773Z,3.44
2018-02-18T07:47:09.996Z,3.47
2018-02-18T07:48:37.268Z,3.51
2018-02-18T07:50:05.530Z,3.54
2018-02-18T07:51:32.822Z,3.57
2018-02-18T07:52:59.811Z,3.52
2018-02-18T07:54:26.020Z,3.47
2018-02-18T07:55:53.210Z,3.43
2018-02-18T07:57:20.554Z,3.45
2018-02-18T07:58:48.708Z,3.50
2018-02-18T08:00:14.914Z,3.54
2018-02-18T08:01:42.807Z,3.59
2018-02-18T08:03:09.888Z,3.64
2018-02-18T08:04:35.979Z,3.68
2018-02-18T08:06:02.996Z,3.72
2018-02-18T08:07:30.069Z,3.75
2018-02-18T08:08:57.222Z,3.78
2018-02-18T08:10:24.585Z,3.81
2018-02-18T08:11:51.745Z,3.83
2018-02-18T08:13:18.950Z,3.86
2018-02-18T08:14:46.239Z,3.89
2018-02-18T08:16:14.329Z,3.92
2018-02-18T08:17:40.497Z,3.94
2018-02-18T08:19:07.793Z,3.96
2018-02-18T08:20:35.060Z,3.98
2018-02-18T08:22:03.407Z,4.00
2018-02-18T08:23:30.599Z,4.03
2018-02-18T08:24:57.685Z,4.04
2018-02-18T08:26:24.060Z,4.06
2018-02-18T08:27:51.155Z,4.07
2018-02-18T08:29:27.948Z,4.08
2018-02-18T08:30:55.064Z,4.07
2018-02-18T08:32:23.308Z,4.08
2018-02-18T08:33:49.532Z,4.11
2018-02-18T08:35:16.703Z,4.13
2018-02-18T08:36:43.829Z,4.16
2018-02-18T08:38:12.071Z,4.18
2018-02-18T08:39:38.684Z,4.20
2018-02-18T08:41:05.949Z,4.21
2018-02-18T08:42:33.049Z,4.23
2018-02-18T08:44:00.272Z,4.24
2018-02-18T08:45:26.591Z,4.25
2018-02-18T08:46:53.951Z,4.25
2018-02-18T08:48:19.976Z,4.26
2018-02-18T08:49:47.062Z,4.29
2018-02-18T08:51:13.858Z,4.32
2018-02-18T08:52:41.958Z,4.33
2018-02-18T08:54:08.728Z,4.36
2018-02-18T08:55:34.630Z,4.38
2018-02-18T08:57:01.791Z,4.41
2018-02-18T08:58:30.113Z,4.44
2018-02-18T08:59:56.360Z,4.46
2018-02-18T09:01:23.940Z,4.49
2018-02-18T09:02:50.186Z,4.51
2018-02-18T09:04:17.359Z,4.54
2018-02-18T09:05:45.286Z,4.56
2018-02-18T09:07:12.498Z,4.58
2018-02-18T09:08:39.670Z,4.59
2018-02-18T09:10:06.988Z,4.60
2018-02-18T09:11:33.120Z,4.60
2018-02-18T09:13:00.392Z,4.62
2018-02-18T09:14:27.728Z,4.63
2018-02-18T09:15:54.668Z,4.65
2018-02-18T09:17:21.903Z,4.66
2018-02-18T09:18:50.126Z,4.66
2018-02-18T09:20:17.337Z,4.67
2018-02-18T09:21:44.451Z,4.68
2018-02-18T09:23:10.773Z,4.69
2018-02-18T09:24:37.956Z,4.71
2018-02-18T09:26:05.239Z,4.73
2018-02-18T09:27:33.110Z,4.76
2018-02-18T09:29:00.556Z,4.79
2018-02-18T09:30:26.753Z,4.81
2018-02-18T09:31:53.563Z,4.83
2018-02-18T09:33:21.719Z,4.85
2018-02-18T09:34:47.579Z,4.87
2018-02-18T09:36:14.311Z,4.89
2018-02-18T09:37:42.207Z,4.91
2018-02-18T09:39:08.223Z,4.94
2018-02-18T09:40:35.643Z,4.96
2018-02-18T09:42:02.770Z,4.98
2018-02-18T09:43:31.036Z,4.99
2018-02-18T09:44:58.270Z,4.99
2018-02-18T09:46:24.933Z,4.99
2018-02-18T09:47:51.532Z,5.01
2018-02-18T09:49:17.816Z,5.04
2018-02-18T09:50:45.039Z,5.06
2018-02-18T09:52:11.742Z,5.07
2018-02-18T09:53:39.520Z,5.07
2018-02-18T09:55:05.680Z,5.09
2018-02-18T09:56:32.933Z,5.11
2018-02-18T09:58:00.196Z,5.14
2018-02-18T09:59:27.072Z,5.16
2018-02-18T10:00:55.383Z,5.17
2018-02-18T10:02:21.737Z,5.19
2018-02-18T10:03:49.687Z,5.20
2018-02-18T10:05:15.618Z,5.18
2018-02-18T10:06:42.952Z,5.15
2018-02-18T10:08:09.992Z,5.18
2018-02-18T10:09:37.278Z,5.20
2018-02-18T10:11:04.648Z,5.21
2018-02-18T10:12:31.808Z,5.21
2018-02-18T10:14:00.063Z,5.23
2018-02-18T10:15:27.253Z,5.24
2018-02-18T10:16:53.619Z,5.24
2018-02-18T10:18:20.882Z,5.23
2018-02-18T10:19:47.758Z,5.22
2018-02-18T10:21:15.826Z,5.24
2018-02-18T10:22:42.048Z,5.27
2018-02-18T10:24:10.277Z,5.30
2018-02-18T10:25:36.222Z,5.32
2018-02-18T10:27:03.432Z,5.34
2018-02-18T10:28:31.717Z,5.32
2018-02-18T10:29:58.080Z,5.33
2018-02-18T10:31:25.164Z,5.34
2018-02-18T10:32:52.365Z,5.35
2018-02-18T10:34:19.660Z,5.37
2018-02-18T10:35:48.029Z,5.39
2018-02-18T10:37:14.101Z,5.38
2018-02-18T10:38:41.248Z,5.33
2018-02-18T10:40:08.698Z,5.31
2018-02-18T10:41:36.997Z,5.29
2018-02-18T10:43:03.404Z,5.31
2018-02-18T10:44:30.677Z,5.33
2018-02-18T10:45:58.973Z,5.36
2018-02-18T10:47:26.309Z,5.41
2018-02-18T10:48:52.572Z,5.40
2018-02-18T10:50:20.390Z,5.43
2018-02-18T10:51:46.481Z,5.47
2018-02-18T10:53:14.693Z,5.49
2018-02-18T10:54:41.850Z,5.51
2018-02-18T10:56:08.130Z,5.53
2018-02-18T10:57:36.503Z,5.56
2018-02-18T10:59:02.700Z,5.51
2018-02-18T11:00:31.073Z,5.52
2018-02-18T11:01:57.361Z,5.55
2018-02-18T11:03:24.587Z,5.57
2018-02-18T11:04:51.819Z,5.58
2018-02-18T11:06:18.944Z,5.59
2018-02-18T11:07:46.156Z,5.60
2018-02-18T11:09:13.203Z,5.60
2018-02-18T11:10:40.220Z,5.63
2018-02-18T11:12:08.370Z,5.66
2018-02-18T11:13:34.508Z,5.69
2018-02-18T11:15:02.757Z,5.68
2018-02-18T11:16:29.999Z,5.69
2018-02-18T11:17:57.343Z,5.68
2018-02-18T11:19:24.559Z,5.70
2018-02-18T11:20:50.642Z,5.64
2018-02-18T11:22:18.833Z,5.64
2018-02-18T11:23:46.082Z,5.65
2018-02-18T11:25:13.067Z,5.65
2018-02-18T11:26:39.958Z,5.66
2018-02-18T11:28:07.219Z,5.67
2018-02-18T11:29:33.669Z,5.68
2018-02-18T11:31:00.021Z,5.68
2018-02-18T11:32:27.210Z,5.70
2018-02-18T11:33:54.386Z,5.71
2018-02-18T11:35:22.694Z,5.76
2018-02-18T11:36:48.853Z,5.77
2018-02-18T11:38:15.424Z,5.77
2018-02-18T11:39:42.646Z,5.76
2018-02-18T11:41:10.252Z,5.77
2018-02-18T11:42:37.345Z,5.78
2018-02-18T11:44:04.600Z,5.82
2018-02-18T11:45:31.803Z,5.84
2018-02-18T11:46:58.027Z,5.86
2018-02-18T11:48:24.749Z,5.88
2018-02-18T11:49:51.739Z,5.90
2018-02-18T11:51:18.493Z,5.95
2018-02-18T11:52:46.432Z,5.89
2018-02-18T11:54:13.695Z,5.77
2018-02-18T11:55:40.815Z,5.70
2018-02-18T11:57:08.050Z,5.73
2018-02-18T11:58:35.079Z,5.79
2018-02-18T12:00:01.264Z,5.82
2018-02-18T12:01:29.836Z,5.90
2018-02-18T12:02:56.086Z,5.93
2018-02-18T12:04:23.421Z,6.00
2018-02-18T12:05:50.078Z,6.07
2018-02-18T12:07:16.855Z,6.11
2018-02-18T12:08:44.177Z,6.09
2018-02-18T12:10:11.394Z,6.05
2018-02-18T12:11:39.800Z,6.08
2018-02-18T12:13:07.168Z,6.09
2018-02-18T12:14:33.374Z,6.09
2018-02-18T12:16:01.147Z,6.17
2018-02-18T12:17:27.536Z,6.31
2018-02-18T12:18:54.866Z,6.44
2018-02-18T12:20:22.086Z,6.52
2018-02-18T12:21:50.357Z,6.65
2018-02-18T12:23:16.681Z,6.68
2018-02-18T12:24:44.567Z,6.76
2018-02-18T12:26:10.670Z,6.81
2018-02-18T12:27:38.966Z,6.92
2018-02-18T12:29:05.177Z,7.14
2018-02-18T12:30:32.524Z,7.35
2018-02-18T12:31:59.533Z,7.59
2018-02-18T12:33:27.960Z,7.58
2018-02-18T12:34:54.126Z,7.57
2018-02-18T12:36:21.419Z,7.62
2018-02-18T12:37:48.610Z,7.64
2018-02-18T12:39:15.746Z,7.67
2018-02-18T12:40:44.000Z,7.64
2018-02-18T12:42:11.131Z,7.54
2018-02-18T12:43:38.506Z,7.58
2018-02-18T12:45:04.821Z,7.72
2018-02-18T12:46:31.861Z,7.73
2018-02-18T12:47:59.947Z,7.76
2018-02-18T12:49:26.261Z,7.69
2018-02-18T12:50:54.432Z,7.62
2018-02-18T12:52:20.299Z,7.65
2018-02-18T12:53:48.545Z,7.65
2018-02-18T12:55:14.841Z,7.61
2018-02-18T12:56:42.875Z,7.68
2018-02-18T12:58:08.860Z,7.93
2018-02-18T12:59:37.175Z,8.01
2018-02-18T13:01:04.455Z,8.20
2018-02-18T13:02:30.166Z,8.41
2018-02-18T13:03:57.455Z,8.37
2018-02-18T13:05:25.898Z,8.45
2018-02-18T13:06:52.239Z,8.35
2018-02-18T13:08:19.611Z,8.17
2018-02-18T13:09:46.698Z,8.03
2018-02-18T13:11:14.838Z,8.00
2018-02-18T13:12:40.843Z,8.02
2018-02-18T13:14:08.280Z,8.11
2018-02-18T13:15:36.565Z,8.24
2018-02-18T13:17:02.565Z,8.41
2018-02-18T13:18:30.899Z,8.50
2018-02-18T13:19:58.291Z,8.72
2018-02-18T13:21:25.682Z,8.86
2018-02-18T13:22:51.900Z,8.87
2018-02-18T13:24:20.225Z,8.83
2018-02-18T13:25:47.444Z,8.70
2018-02-18T13:27:13.104Z,8.54
2018-02-18T13:28:40.289Z,8.35
2018-02-18T13:30:07.682Z,8.22
2018-02-18T13:31:34.369Z,8.13
2018-02-18T13:33:01.139Z,8.08
2018-02-18T13:34:28.644Z,8.09
2018-02-18T13:35:54.339Z,8.16
2018-02-18T13:37:21.501Z,8.20
2018-02-18T13:38:49.821Z,8.11
2018-02-18T13:40:17.143Z,8.06
2018-02-18T13:41:44.365Z,8.12
2018-02-18T13:43:10.376Z,8.12
2018-02-18T13:44:37.694Z,8.10
2018-02-18T13:46:04.938Z,8.00
2018-02-18T13:47:32.382Z,7.83
2018-02-18T13:49:00.751Z,7.65
2018-02-18T13:50:27.105Z,7.58
2018-02-18T13:51:54.367Z,7.55
2018-02-18T13:53:21.691Z,7.61
2018-02-18T13:54:48.618Z,7.68
2018-02-18T13:56:15.876Z,7.74
2018-02-18T13:57:43.169Z,7.74
2018-02-18T13:59:10.218Z,7.66
2018-02-18T14:00:38.236Z,7.64
2018-02-18T14:02:04.477Z,7.57
2018-02-18T14:03:31.771Z,7.51
2018-02-18T14:05:00.016Z,7.42
2018-02-18T14:06:26.029Z,7.36
2018-02-18T14:07:54.407Z,7.31
2018-02-18T14:09:20.592Z,7.28
2018-02-18T14:10:47.806Z,7.23
2018-02-18T14:12:15.122Z,7.22
2018-02-18T14:13:42.284Z,7.28
2018-02-18T14:15:10.498Z,7.29
2018-02-18T14:16:37.610Z,7.29
2018-02-18T14:18:03.819Z,7.28
2018-02-18T14:19:30.729Z,7.23
2018-02-18T14:20:57.725Z,7.25
2018-02-18T14:22:24.986Z,7.30
2018-02-18T14:23:53.085Z,7.37
2018-02-18T14:25:20.451Z,7.42
2018-02-18T14:26:47.874Z,7.42
2018-02-18T14:28:14.987Z,7.46
2018-02-18T14:29:41.579Z,7.44
2018-02-18T14:31:07.960Z,7.40
2018-02-18T14:32:36.190Z,7.36
2018-02-18T14:34:02.298Z,7.29
2018-02-18T14:35:29.212Z,7.21
2018-02-18T14:36:57.663Z,7.13
2018-02-18T14:38:23.228Z,7.11
2018-02-18T14:39:50.861Z,7.08
2018-02-18T14:41:17.071Z,7.01
2018-02-18T14:42:45.456Z,6.94
2018-02-18T14:44:11.600Z,6.85
2018-02-18T14:45:38.989Z,6.78
2018-02-18T14:47:06.809Z,6.73
2018-02-18T14:48:33.938Z,6.68
2018-02-18T14:50:01.217Z,6.67
2018-02-18T14:51:27.380Z,6.65
2018-02-18T14:52:55.834Z,6.62
2018-02-18T14:54:22.999Z,6.57
2018-02-18T14:55:49.328Z,6.55
2018-02-18T14:57:16.383Z,6.54
2018-02-18T14:58:43.196Z,6.52
2018-02-18T15:00:11.611Z,6.47
2018-02-18T15:01:37.799Z,6.42
2018-02-18T15:03:06.050Z,6.41
2018-02-18T15:04:32.161Z,6.37
2018-02-18T15:05:59.339Z,6.36
2018-02-18T15:07:26.644Z,6.36
2018-02-18T15:08:54.319Z,6.32
2018-02-18T15:10:20.602Z,6.30
2018-02-18T15:11:47.907Z,6.29
2018-02-18T15:13:15.340Z,6.27
2018-02-18T15:14:42.893Z,6.24
2018-02-18T15:16:09.075Z,6.21
2018-02-18T15:17:37.305Z,6.18
2018-02-18T15:19:03.282Z,6.15
2018-02-18T15:20:30.489Z,6.16
2018-02-18T15:21:57.669Z,6.15
2018-02-18T15:23:24.579Z,6.12
2018-02-18T15:24:51.586Z,6.09
2018-02-18T15:26:19.960Z,6.09
2018-02-18T15:27:47.161Z,6.09
2018-02-18T15:29:13.301Z,6.09
2018-02-18T15:30:39.938Z,6.07
2018-02-18T15:32:08.336Z,6.04
2018-02-18T15:33:35.487Z,6.02
2018-02-18T15:35:02.581Z,6.01
2018-02-18T15:36:28.691Z,5.97
2018-02-18T15:37:56.978Z,5.94
2018-02-18T15:39:22.600Z,5.92
2018-02-18T15:40:49.977Z,5.90
2018-02-18T15:42:16.770Z,5.88
2018-02-18T15:43:44.109Z,5.86
2018-02-18T15:45:12.442Z,5.82
2018-02-18T15:46:39.040Z,5.81
2018-02-18T15:48:06.331Z,5.77
2018-02-18T15:49:32.335Z,5.75
2018-02-18T15:50:59.452Z,5.73
2018-02-18T15:52:26.489Z,5.72
2018-02-18T15:53:53.676Z,5.73
2018-02-18T15:55:21.944Z,5.72
2018-02-18T15:56:49.351Z,5.72
2018-02-18T15:58:15.430Z,5.69
2018-02-18T15:59:42.674Z,5.68
2018-02-18T16:01:10.144Z,5.64
2018-02-18T16:02:37.231Z,5.56
2018-02-18T16:04:05.421Z,5.55
2018-02-18T16:05:32.321Z,5.53
2018-02-18T16:06:58.209Z,5.51
2018-02-18T16:08:26.636Z,5.47
2018-02-18T16:09:52.697Z,5.47
2018-02-18T16:11:19.948Z,5.49
2018-02-18T16:12:48.063Z,5.50
2018-02-18T16:14:14.388Z,5.50
2018-02-18T16:15:42.399Z,5.48
2018-02-18T16:17:08.592Z,5.48
2018-02-18T16:18:36.818Z,5.45
2018-02-18T16:20:03.979Z,5.41
2018-02-18T16:21:30.062Z,5.37
2018-02-18T16:22:57.708Z,5.35
2018-02-18T16:24:24.980Z,5.33
2018-02-18T16:25:51.357Z,5.30
2018-02-18T16:27:18.516Z,5.28
2018-02-18T16:28:45.738Z,5.26
2018-02-18T16:30:12.917Z,5.22
2018-02-18T16:31:41.214Z,5.19
2018-02-18T16:33:07.206Z,5.16
2018-02-18T16:34:34.427Z,5.13
2018-02-18T16:36:01.641Z,5.09
2018-02-18T16:37:28.492Z,5.06
2018-02-18T16:38:55.771Z,5.00
2018-02-18T16:40:22.673Z,4.94
2018-02-18T16:41:49.875Z,4.90
2018-02-18T16:43:17.164Z,4.88
2018-02-18T16:44:44.403Z,4.83
2018-02-18T16:46:11.665Z,4.82
2018-02-18T16:47:39.980Z,4.78
2018-02-18T16:49:07.096Z,4.76
2018-02-18T16:50:34.356Z,4.72
2018-02-18T16:52:00.527Z,4.69
2018-02-18T16:53:27.591Z,4.65
2018-02-18T16:54:55.781Z,4.63
2018-02-18T16:56:22.943Z,4.62
2018-02-18T16:57:50.080Z,4.62
2018-02-18T16:59:16.175Z,4.61
2018-02-18T17:00:43.365Z,4.61
2018-02-18T17:02:10.690Z,4.61
2018-02-18T17:03:37.954Z,4.60
2018-02-18T17:05:06.077Z,4.59
2018-02-18T17:06:32.110Z,4.56
2018-02-18T17:07:59.258Z,4.54
2018-02-18T17:09:26.370Z,4.53
2018-02-18T17:10:54.699Z,4.52
2018-02-18T17:12:21.041Z,4.50
2018-02-18T17:13:49.151Z,4.50
2018-02-18T17:15:15.359Z,4.47
2018-02-18T17:16:43.585Z,4.45
2018-02-18T17:18:10.835Z,4.44
2018-02-18T17:19:38.121Z,4.45
2018-02-18T17:21:05.164Z,4.44
2018-02-18T17:22:32.320Z,4.42
2018-02-18T17:23:59.189Z,4.41
2018-02-18T17:25:25.246Z,4.40
2018-02-18T17:26:52.603Z,4.38
2018-02-18T17:28:20.759Z,4.36
2018-02-18T17:29:46.509Z,4.35
2018-02-18T17:31:13.689Z,4.35
2018-02-18T17:32:40.936Z,4.34
2018-02-18T17:34:09.162Z,4.31
2018-02-18T17:35:36.288Z,4.28
2018-02-18T17:37:03.482Z,4.26
2018-02-18T17:38:29.667Z,4.25
2018-02-18T17:39:56.573Z,4.22
2018-02-18T17:41:23.716Z,4.18
2018-02-18T17:42:50.953Z,4.18
2018-02-18T17:44:17.985Z,4.13
2018-02-18T17:45:45.095Z,4.12
2018-02-18T17:47:13.306Z,4.11
2018-02-18T17:48:39.408Z,4.11
2018-02-18T17:50:06.300Z,4.11
2018-02-18T17:51:33.461Z,4.10
2018-02-18T17:53:00.631Z,4.06
2018-02-18T17:54:27.505Z,4.07
2018-02-18T17:55:54.755Z,4.07
2018-02-18T17:57:23.004Z,4.06
2018-02-18T17:58:50.158Z,4.06
2018-02-18T18:00:17.272Z,4.06
2018-02-18T18:01:44.386Z,4.03
2018-02-18T18:03:10.554Z,4.02
2018-02-18T18:04:37.554Z,3.99
2018-02-18T18:06:05.296Z,3.98
2018-02-18T18:07:31.555Z,3.96
2018-02-18T18:08:58.753Z,3.95
2018-02-18T18:10:25.743Z,3.95
2018-02-18T18:11:52.938Z,3.93
2018-02-18T18:13:20.138Z,3.89
2018-02-18T18:14:48.422Z,3.88
2018-02-18T18:16:15.660Z,3.88
2018-02-18T18:17:41.730Z,3.90
2018-02-18T18:19:10.056Z,3.90
2018-02-18T18:20:36.284Z,3.91
2018-02-18T18:22:04.605Z,3.91
2018-02-18T18:23:31.583Z,3.92
2018-02-18T18:24:57.805Z,3.92
2018-02-18T18:26:25.845Z,3.90
2018-02-18T18:27:52.491Z,3.89
2018-02-18T18:29:18.657Z,3.89
2018-02-18T18:30:46.900Z,3.86
2018-02-18T18:32:13.016Z,3.82
2018-02-18T18:33:40.306Z,3.81
2018-02-18T18:35:08.541Z,3.78
2018-02-18T18:36:34.698Z,3.74
2018-02-18T18:38:02.483Z,3.72
2018-02-18T18:39:29.477Z,3.68
2018-02-18T18:40:56.679Z,3.66
2018-02-18T18:42:22.560Z,3.66
2018-02-18T18:43:49.598Z,3.64
2018-02-18T18:45:16.861Z,3.63
2018-02-18T18:46:44.183Z,3.62
2018-02-18T18:48:12.379Z,3.61
2018-02-18T18:49:38.311Z,3.56
2018-02-18T18:51:06.426Z,3.56
2018-02-18T18:52:32.613Z,3.53
2018-02-18T18:53:59.658Z,3.50
2018-02-18T18:55:29.253Z,3.47
2018-02-18T18:56:53.357Z,3.46
2018-02-18T18:58:21.052Z,3.43
2018-02-18T18:59:47.316Z,3.42
2018-02-18T19:01:14.532Z,3.41
2018-02-18T19:02:41.896Z,3.40
2018-02-18T19:04:09.213Z,3.39
2018-02-18T19:05:36.475Z,3.38
2018-02-18T19:07:03.534Z,3.36
2018-02-18T19:08:30.709Z,3.36
2018-02-18T19:09:58.587Z,3.35
2018-02-18T19:11:24.866Z,3.32
2018-02-18T19:12:52.161Z,3.32
2018-02-18T19:14:19.161Z,3.33
2018-02-18T19:15:46.167Z,3.33
2018-02-18T19:17:13.168Z,3.33
2018-02-18T19:18:40.363Z,3.32
2018-02-18T19:20:07.141Z,3.32